Çubuk, Turkey

3:35 PM EEST on July 27, 2016 (GMT +0300)
Esenboga | | Change Station

Elev 3114 ft 40.13 °N, 33.00 °E | Updated 15 minutes ago

Scattered Clouds
Scattered Clouds
86 °F
Feels Like 86 °F
N
4
Wind Variable Wind from Variable

Today
High -- | Low -- °F
--% Chance of Precip.
Yesterday
High -- | Low -- °F
Precip. -- in
Pressure 29.89 in
Visibility 6.2 miles
Clouds Scattered Clouds 4000 ft
Dew Point 45 °F
Humidity 23%
Rainfall 0.00 in
Snow Depth Not available.
5:41 AM 8:06 PM
Last Quarter, 43% visible
METAR LTAC 271220Z VRB03KT 9999 SCT040 30/07 Q1012 NOSIG RMK RWY21L 21006KT 110V260 RWY03L 03005KT 340V080 RWY21R 20007KT 100V250
Pressure 29.89 in
Visibility 6.2 miles
Clouds Scattered Clouds 4000 ft
Dew Point 45 °F
Humidity 23%
Rainfall 0.00 in
Snow Depth Not available.
5:41 AM 8:06 PM
Last Quarter, 43% visible
METAR LTAC 271220Z VRB03KT 9999 SCT040 30/07 Q1012 NOSIG RMK RWY21L 21006KT 110V260 RWY03L 03005KT 340V080 RWY21R 20007KT 100V250

10-Day Weather Forecast

×

Almanac

Astronomy

Jul. 27, 2016 Rise Set
Actual Time
Civil Twilight
Nautical Twilight
Astronomical Twilight
Moon
Length of Visible Light
Length of Day
Tomorrow will be .
, % of the Moon is Illuminated

Today's Extremes

Country Highs Country Lows

Community

WunderPhotos

Upload Photos

1,927,838 photos uploaded!

WunderBlog® & News

Nearby

Air Quality

  Air Quality AQ Index Pollutant
Not available.

Snow Depth

Station Depth Elevation

Earthquake Activity

City Distance Mag. Time & Date
Minimum magnitude displayed is 2.5.

Coastal Water Temperatures

Place Temperature

Stations

Nearby Weather Stations

Station Location Temp. Windchill Dew Point Humidity Wind Precip. Elev Updated Type